sensor_id;sensor_type;location;lat;lon;timestamp;temperature;humidity
5196;DHT22;2617;51.006;12.436;2023-03-20T00:01:42;8.70;99.90
5196;DHT22;2617;51.006;12.436;2023-03-20T00:06:44;8.70;99.90
5196;DHT22;2617;51.006;12.436;2023-03-20T00:11:47;8.80;99.90
5196;DHT22;2617;51.006;12.436;2023-03-20T00:16:49;8.80;99.90
5196;DHT22;2617;51.006;12.436;2023-03-20T00:21:52;8.80;99.90
5196;DHT22;2617;51.006;12.436;2023-03-20T00:26:54;8.80;99.90
5196;DHT22;2617;51.006;12.436;2023-03-20T00:31:57;8.90;99.90
5196;DHT22;2617;51.006;12.436;2023-03-20T00:36:59;8.90;99.90
5196;DHT22;2617;51.006;12.436;2023-03-20T00:42:03;8.90;99.90
5196;DHT22;2617;51.006;12.436;2023-03-20T00:52:23;9.00;99.90
5196;DHT22;2617;51.006;12.436;2023-03-20T00:57:28;9.00;99.90
5196;DHT22;2617;51.006;12.436;2023-03-20T01:02:30;9.00;99.90
5196;DHT22;2617;51.006;12.436;2023-03-20T01:07:32;9.00;99.90
5196;DHT22;2617;51.006;12.436;2023-03-20T01:12:35;9.00;99.90
5196;DHT22;2617;51.006;12.436;2023-03-20T01:17:38;9.00;99.90
5196;DHT22;2617;51.006;12.436;2023-03-20T01:22:40;9.00;99.90
5196;DHT22;2617;51.006;12.436;2023-03-20T01:27:45;9.00;99.90
5196;DHT22;2617;51.006;12.436;2023-03-20T01:32:55;9.10;99.90
5196;DHT22;2617;51.006;12.436;2023-03-20T01:37:57;9.00;99.90
5196;DHT22;2617;51.006;12.436;2023-03-20T01:43:00;9.00;99.90
5196;DHT22;2617;51.006;12.436;2023-03-20T01:48:16;9.10;99.90
5196;DHT22;2617;51.006;12.436;2023-03-20T01:53:21;9.10;99.90
5196;DHT22;2617;51.006;12.436;2023-03-20T01:58:27;9.00;99.90
5196;DHT22;2617;51.006;12.436;2023-03-20T02:03:29;9.10;99.90
5196;DHT22;2617;51.006;12.436;2023-03-20T02:08:32;9.00;99.90
5196;DHT22;2617;51.006;12.436;2023-03-20T02:13:34;9.00;99.90
5196;DHT22;2617;51.006;12.436;2023-03-20T02:18:37;9.00;99.90
5196;DHT22;2617;51.006;12.436;2023-03-20T02:35:05;9.00;99.90
5196;DHT22;2617;51.006;12.436;2023-03-20T02:40:23;8.90;99.90
5196;DHT22;2617;51.006;12.436;2023-03-20T02:45:35;8.90;99.90
5196;DHT22;2617;51.006;12.436;2023-03-20T02:50:58;8.90;99.90
5196;DHT22;2617;51.006;12.436;2023-03-20T02:56:05;8.90;99.90
5196;DHT22;2617;51.006;12.436;2023-03-20T03:01:09;8.80;99.90
5196;DHT22;2617;51.006;12.436;2023-03-20T03:06:14;8.70;99.90
5196;DHT22;2617;51.006;12.436;2023-03-20T03:11:29;8.70;99.90
5196;DHT22;2617;51.006;12.436;2023-03-20T03:16:32;8.60;99.90
5196;DHT22;2617;51.006;12.436;2023-03-20T03:21:34;8.50;99.90
5196;DHT22;2617;51.006;12.436;2023-03-20T03:26:37;8.30;99.90
5196;DHT22;2617;51.006;12.436;2023-03-20T03:31:40;8.10;99.90
5196;DHT22;2617;51.006;12.436;2023-03-20T03:36:53;8.00;99.90
5196;DHT22;2617;51.006;12.436;2023-03-20T03:42:23;8.00;99.90
5196;DHT22;2617;51.006;12.436;2023-03-20T03:47:30;7.70;99.90
5196;DHT22;2617;51.006;12.436;2023-03-20T03:52:33;7.70;99.90
5196;DHT22;2617;51.006;12.436;2023-03-20T03:57:40;7.50;99.90
5196;DHT22;2617;51.006;12.436;2023-03-20T04:02:42;7.50;99.90
5196;DHT22;2617;51.006;12.436;2023-03-20T04:07:45;7.40;99.90
5196;DHT22;2617;51.006;12.436;2023-03-20T04:12:47;7.40;99.90
5196;DHT22;2617;51.006;12.436;2023-03-20T04:17:50;7.30;99.90
5196;DHT22;2617;51.006;12.436;2023-03-20T04:22:52;7.30;99.90
5196;DHT22;2617;51.006;12.436;2023-03-20T04:27:55;7.00;99.90
5196;DHT22;2617;51.006;12.436;2023-03-20T04:32:58;7.00;99.90
5196;DHT22;2617;51.006;12.436;2023-03-20T04:38:00;7.00;99.90
5196;DHT22;2617;51.006;12.436;2023-03-20T04:43:03;6.90;99.90
5196;DHT22;2617;51.006;12.436;2023-03-20T04:48:06;6.90;99.90
5196;DHT22;2617;51.006;12.436;2023-03-20T04:53:09;7.00;99.90
5196;DHT22;2617;51.006;12.436;2023-03-20T04:58:11;6.90;99.90
5196;DHT22;2617;51.006;12.436;2023-03-20T05:03:14;7.00;99.90
5196;DHT22;2617;51.006;12.436;2023-03-20T05:08:16;7.10;99.90
5196;DHT22;2617;51.006;12.436;2023-03-20T05:13:19;7.20;99.90
5196;DHT22;2617;51.006;12.436;2023-03-20T05:18:21;7.30;99.90
5196;DHT22;2617;51.006;12.436;2023-03-20T05:23:23;7.40;99.90
5196;DHT22;2617;51.006;12.436;2023-03-20T05:28:26;7.50;99.90
5196;DHT22;2617;51.006;12.436;2023-03-20T05:33:30;7.50;99.90
5196;DHT22;2617;51.006;12.436;2023-03-20T05:38:33;7.60;99.90
5196;DHT22;2617;51.006;12.436;2023-03-20T05:43:35;7.70;99.90
5196;DHT22;2617;51.006;12.436;2023-03-20T05:48:37;7.80;99.90
5196;DHT22;2617;51.006;12.436;2023-03-20T05:53:41;7.90;99.90
5196;DHT22;2617;51.006;12.436;2023-03-20T05:58:43;7.90;99.90
5196;DHT22;2617;51.006;12.436;2023-03-20T06:03:47;8.00;99.90
5196;DHT22;2617;51.006;12.436;2023-03-20T06:08:49;8.10;99.90
5196;DHT22;2617;51.006;12.436;2023-03-20T06:13:51;8.20;99.90
5196;DHT22;2617;51.006;12.436;2023-03-20T06:18:54;8.40;99.90
5196;DHT22;2617;51.006;12.436;2023-03-20T06:23:57;8.40;99.90
5196;DHT22;2617;51.006;12.436;2023-03-20T06:28:59;8.50;99.90
5196;DHT22;2617;51.006;12.436;2023-03-20T06:34:02;8.60;99.90
5196;DHT22;2617;51.006;12.436;2023-03-20T06:39:04;8.80;99.90
5196;DHT22;2617;51.006;12.436;2023-03-20T06:44:07;9.00;99.90
5196;DHT22;2617;51.006;12.436;2023-03-20T06:49:11;9.10;99.90
5196;DHT22;2617;51.006;12.436;2023-03-20T06:54:13;9.10;99.90
5196;DHT22;2617;51.006;12.436;2023-03-20T06:59:15;9.10;99.90
5196;DHT22;2617;51.006;12.436;2023-03-20T07:04:18;9.20;99.90
5196;DHT22;2617;51.006;12.436;2023-03-20T07:09:20;9.30;99.90
5196;DHT22;2617;51.006;12.436;2023-03-20T07:14:23;9.40;99.90
5196;DHT22;2617;51.006;12.436;2023-03-20T07:19:25;9.40;99.90
5196;DHT22;2617;51.006;12.436;2023-03-20T07:24:28;9.40;99.90
5196;DHT22;2617;51.006;12.436;2023-03-20T07:29:30;9.50;99.90
5196;DHT22;2617;51.006;12.436;2023-03-20T07:34:34;9.80;99.90
5196;DHT22;2617;51.006;12.436;2023-03-20T07:39:36;9.80;99.90
5196;DHT22;2617;51.006;12.436;2023-03-20T07:44:38;10.00;99.90
5196;DHT22;2617;51.006;12.436;2023-03-20T07:49:42;10.60;99.90
5196;DHT22;2617;51.006;12.436;2023-03-20T07:54:44;10.60;99.90
5196;DHT22;2617;51.006;12.436;2023-03-20T07:59:46;10.90;99.90
5196;DHT22;2617;51.006;12.436;2023-03-20T08:04:49;11.10;99.90
5196;DHT22;2617;51.006;12.436;2023-03-20T08:09:52;11.70;99.90
5196;DHT22;2617;51.006;12.436;2023-03-20T08:14:54;11.70;99.90
5196;DHT22;2617;51.006;12.436;2023-03-20T08:19:57;12.00;99.90
5196;DHT22;2617;51.006;12.436;2023-03-20T08:24:59;12.20;99.90
5196;DHT22;2617;51.006;12.436;2023-03-20T08:30:03;12.40;99.90
5196;DHT22;2617;51.006;12.436;2023-03-20T08:35:07;12.90;99.90
5196;DHT22;2617;51.006;12.436;2023-03-20T08:40:10;12.90;99.90
5196;DHT22;2617;51.006;12.436;2023-03-20T08:45:13;13.00;99.90
5196;DHT22;2617;51.006;12.436;2023-03-20T08:50:16;12.90;99.90
5196;DHT22;2617;51.006;12.436;2023-03-20T08:55:18;12.90;99.90
5196;DHT22;2617;51.006;12.436;2023-03-20T09:00:21;13.00;99.90
5196;DHT22;2617;51.006;12.436;2023-03-20T09:05:24;13.10;99.90
5196;DHT22;2617;51.006;12.436;2023-03-20T09:10:27;13.10;99.90
5196;DHT22;2617;51.006;12.436;2023-03-20T09:15:29;13.10;99.90
5196;DHT22;2617;51.006;12.436;2023-03-20T09:20:32;13.10;99.90
5196;DHT22;2617;51.006;12.436;2023-03-20T09:25:34;13.20;99.90
5196;DHT22;2617;51.006;12.436;2023-03-20T09:30:36;13.30;99.90
5196;DHT22;2617;51.006;12.436;2023-03-20T09:35:39;13.20;99.90
5196;DHT22;2617;51.006;12.436;2023-03-20T09:40:51;12.60;99.90
5196;DHT22;2617;51.006;12.436;2023-03-20T09:56:48;12.30;99.90
5196;DHT22;2617;51.006;12.436;2023-03-20T10:01:54;12.50;99.90
5196;DHT22;2617;51.006;12.436;2023-03-20T10:06:56;12.50;99.90
5196;DHT22;2617;51.006;12.436;2023-03-20T10:12:08;12.40;99.90
5196;DHT22;2617;51.006;12.436;2023-03-20T10:22:38;12.10;99.90
5196;DHT22;2617;51.006;12.436;2023-03-20T10:27:43;12.00;99.90
5196;DHT22;2617;51.006;12.436;2023-03-20T10:32:58;12.10;99.90
5196;DHT22;2617;51.006;12.436;2023-03-20T10:38:10;12.00;99.90
5196;DHT22;2617;51.006;12.436;2023-03-20T10:43:23;12.00;99.90
5196;DHT22;2617;51.006;12.436;2023-03-20T10:48:38;12.20;99.90
5196;DHT22;2617;51.006;12.436;2023-03-20T10:53:49;12.20;99.90
5196;DHT22;2617;51.006;12.436;2023-03-20T10:58:56;13.00;99.90
5196;DHT22;2617;51.006;12.436;2023-03-20T11:03:56;13.00;99.90
5196;DHT22;2617;51.006;12.436;2023-03-20T11:09:09;13.20;99.90
5196;DHT22;2617;51.006;12.436;2023-03-20T11:14:08;13.30;99.90
5196;DHT22;2617;51.006;12.436;2023-03-20T11:19:11;13.70;99.90
5196;DHT22;2617;51.006;12.436;2023-03-20T11:24:21;14.10;99.90
5196;DHT22;2617;51.006;12.436;2023-03-20T11:29:28;14.20;99.90
5196;DHT22;2617;51.006;12.436;2023-03-20T11:34:29;14.20;99.90
5196;DHT22;2617;51.006;12.436;2023-03-20T11:39:31;14.20;99.90
5196;DHT22;2617;51.006;12.436;2023-03-20T11:44:34;14.10;99.90
5196;DHT22;2617;51.006;12.436;2023-03-20T11:49:45;14.00;99.90
5196;DHT22;2617;51.006;12.436;2023-03-20T11:54:50;13.40;99.90
5196;DHT22;2617;51.006;12.436;2023-03-20T11:59:52;13.40;99.90
5196;DHT22;2617;51.006;12.436;2023-03-20T12:04:56;13.20;99.90
5196;DHT22;2617;51.006;12.436;2023-03-20T12:10:01;13.10;99.90
5196;DHT22;2617;51.006;12.436;2023-03-20T12:15:30;13.10;99.90
5196;DHT22;2617;51.006;12.436;2023-03-20T12:20:58;13.10;99.90
5196;DHT22;2617;51.006;12.436;2023-03-20T12:26:00;13.20;99.90
5196;DHT22;2617;51.006;12.436;2023-03-20T12:31:10;12.90;99.90
5196;DHT22;2617;51.006;12.436;2023-03-20T12:36:11;12.90;99.90
5196;DHT22;2617;51.006;12.436;2023-03-20T12:41:29;12.70;99.90
5196;DHT22;2617;51.006;12.436;2023-03-20T12:46:55;12.40;99.90
5196;DHT22;2617;51.006;12.436;2023-03-20T12:52:18;12.30;99.90
5196;DHT22;2617;51.006;12.436;2023-03-20T12:57:45;12.20;99.90
5196;DHT22;2617;51.006;12.436;2023-03-20T13:03:01;12.20;99.90
5196;DHT22;2617;51.006;12.436;2023-03-20T13:08:09;12.30;99.90
5196;DHT22;2617;51.006;12.436;2023-03-20T13:18:52;12.40;99.90
5196;DHT22;2617;51.006;12.436;2023-03-20T13:24:39;12.40;99.90
5196;DHT22;2617;51.006;12.436;2023-03-20T13:35:28;11.90;99.90
5196;DHT22;2617;51.006;12.436;2023-03-20T13:40:30;11.90;99.90
5196;DHT22;2617;51.006;12.436;2023-03-20T13:45:34;11.70;99.90
5196;DHT22;2617;51.006;12.436;2023-03-20T14:01:55;11.80;99.90
5196;DHT22;2617;51.006;12.436;2023-03-20T14:06:56;12.10;99.90
5196;DHT22;2617;51.006;12.436;2023-03-20T14:12:07;12.50;99.90
5196;DHT22;2617;51.006;12.436;2023-03-20T14:17:14;12.60;99.90
5196;DHT22;2617;51.006;12.436;2023-03-20T14:22:20;12.60;99.90
5196;DHT22;2617;51.006;12.436;2023-03-20T14:27:23;12.50;99.90
5196;DHT22;2617;51.006;12.436;2023-03-20T14:32:30;12.40;99.90
5196;DHT22;2617;51.006;12.436;2023-03-20T14:37:37;12.40;99.90
5196;DHT22;2617;51.006;12.436;2023-03-20T14:42:41;12.20;99.90
5196;DHT22;2617;51.006;12.436;2023-03-20T14:47:52;11.80;99.90
5196;DHT22;2617;51.006;12.436;2023-03-20T14:53:02;11.80;99.90
5196;DHT22;2617;51.006;12.436;2023-03-20T14:58:33;11.50;99.90
5196;DHT22;2617;51.006;12.436;2023-03-20T15:03:36;11.50;99.90
5196;DHT22;2617;51.006;12.436;2023-03-20T15:08:43;11.50;99.90
5196;DHT22;2617;51.006;12.436;2023-03-20T15:13:44;11.50;99.90
5196;DHT22;2617;51.006;12.436;2023-03-20T15:18:50;11.80;99.90
5196;DHT22;2617;51.006;12.436;2023-03-20T15:23:52;12.00;99.90
5196;DHT22;2617;51.006;12.436;2023-03-20T15:28:59;12.00;99.90
5196;DHT22;2617;51.006;12.436;2023-03-20T15:34:07;12.30;99.90
5196;DHT22;2617;51.006;12.436;2023-03-20T15:39:12;12.30;99.90
5196;DHT22;2617;51.006;12.436;2023-03-20T15:44:18;12.20;99.90
5196;DHT22;2617;51.006;12.436;2023-03-20T15:49:20;12.20;99.90
5196;DHT22;2617;51.006;12.436;2023-03-20T15:54:22;12.00;99.90
5196;DHT22;2617;51.006;12.436;2023-03-20T15:59:26;11.80;99.90
5196;DHT22;2617;51.006;12.436;2023-03-20T16:04:28;11.80;99.90
5196;DHT22;2617;51.006;12.436;2023-03-20T16:09:32;11.70;99.90
5196;DHT22;2617;51.006;12.436;2023-03-20T16:14:35;11.60;99.90
5196;DHT22;2617;51.006;12.436;2023-03-20T16:19:38;11.60;99.90
5196;DHT22;2617;51.006;12.436;2023-03-20T16:24:43;11.50;99.90
5196;DHT22;2617;51.006;12.436;2023-03-20T16:29:44;11.40;99.90
5196;DHT22;2617;51.006;12.436;2023-03-20T16:34:48;11.30;99.90
5196;DHT22;2617;51.006;12.436;2023-03-20T16:40:00;11.30;99.90
5196;DHT22;2617;51.006;12.436;2023-03-20T16:45:14;11.10;99.90
5196;DHT22;2617;51.006;12.436;2023-03-20T16:50:21;11.10;99.90
5196;DHT22;2617;51.006;12.436;2023-03-20T16:55:25;11.00;99.90
5196;DHT22;2617;51.006;12.436;2023-03-20T17:00:27;10.80;99.90
5196;DHT22;2617;51.006;12.436;2023-03-20T17:05:45;10.70;99.90
5196;DHT22;2617;51.006;12.436;2023-03-20T17:10:57;10.70;99.90
5196;DHT22;2617;51.006;12.436;2023-03-20T17:15:59;10.50;99.90
5196;DHT22;2617;51.006;12.436;2023-03-20T17:21:02;10.50;99.90
5196;DHT22;2617;51.006;12.436;2023-03-20T17:26:04;10.50;99.90
5196;DHT22;2617;51.006;12.436;2023-03-20T17:31:12;10.40;99.90
5196;DHT22;2617;51.006;12.436;2023-03-20T17:36:20;10.20;99.90
5196;DHT22;2617;51.006;12.436;2023-03-20T17:41:24;10.20;99.90
5196;DHT22;2617;51.006;12.436;2023-03-20T17:46:27;10.10;99.90
5196;DHT22;2617;51.006;12.436;2023-03-20T17:51:29;10.10;99.90
5196;DHT22;2617;51.006;12.436;2023-03-20T17:56:32;10.00;99.90
5196;DHT22;2617;51.006;12.436;2023-03-20T18:01:34;9.80;99.90
5196;DHT22;2617;51.006;12.436;2023-03-20T18:06:36;9.70;99.90
5196;DHT22;2617;51.006;12.436;2023-03-20T18:11:40;9.60;99.90
5196;DHT22;2617;51.006;12.436;2023-03-20T18:16:42;9.60;99.90
5196;DHT22;2617;51.006;12.436;2023-03-20T18:21:45;9.50;99.90
5196;DHT22;2617;51.006;12.436;2023-03-20T18:26:47;9.40;99.90
5196;DHT22;2617;51.006;12.436;2023-03-20T18:31:50;9.30;99.90
5196;DHT22;2617;51.006;12.436;2023-03-20T18:36:53;9.40;99.90
5196;DHT22;2617;51.006;12.436;2023-03-20T18:41:55;9.30;99.90
5196;DHT22;2617;51.006;12.436;2023-03-20T18:46:58;9.20;99.90
5196;DHT22;2617;51.006;12.436;2023-03-20T18:52:01;9.20;99.90
5196;DHT22;2617;51.006;12.436;2023-03-20T18:57:03;9.20;99.90
5196;DHT22;2617;51.006;12.436;2023-03-20T19:02:06;9.20;99.90
5196;DHT22;2617;51.006;12.436;2023-03-20T19:07:09;9.20;99.90
5196;DHT22;2617;51.006;12.436;2023-03-20T19:12:12;9.20;99.90
5196;DHT22;2617;51.006;12.436;2023-03-20T19:17:14;9.20;99.90
5196;DHT22;2617;51.006;12.436;2023-03-20T19:22:17;9.10;99.90
5196;DHT22;2617;51.006;12.436;2023-03-20T19:27:19;9.10;99.90
5196;DHT22;2617;51.006;12.436;2023-03-20T19:32:21;9.10;99.90
5196;DHT22;2617;51.006;12.436;2023-03-20T19:37:24;9.10;99.90
5196;DHT22;2617;51.006;12.436;2023-03-20T19:42:26;9.10;99.90
5196;DHT22;2617;51.006;12.436;2023-03-20T19:47:28;9.10;99.90
5196;DHT22;2617;51.006;12.436;2023-03-20T19:52:33;9.10;99.90
5196;DHT22;2617;51.006;12.436;2023-03-20T19:57:33;9.00;99.90
5196;DHT22;2617;51.006;12.436;2023-03-20T20:02:36;9.00;99.90
5196;DHT22;2617;51.006;12.436;2023-03-20T20:07:38;9.00;99.90
5196;DHT22;2617;51.006;12.436;2023-03-20T20:12:42;9.10;99.90
5196;DHT22;2617;51.006;12.436;2023-03-20T20:17:45;9.20;99.90
5196;DHT22;2617;51.006;12.436;2023-03-20T20:22:47;9.10;99.90
5196;DHT22;2617;51.006;12.436;2023-03-20T20:27:50;9.20;99.90
5196;DHT22;2617;51.006;12.436;2023-03-20T20:32:52;9.20;99.90
5196;DHT22;2617;51.006;12.436;2023-03-20T20:37:54;9.20;99.90
5196;DHT22;2617;51.006;12.436;2023-03-20T20:42:57;9.20;99.90
5196;DHT22;2617;51.006;12.436;2023-03-20T20:48:00;9.20;99.90
5196;DHT22;2617;51.006;12.436;2023-03-20T20:53:02;9.10;99.90
5196;DHT22;2617;51.006;12.436;2023-03-20T20:58:04;9.10;99.90
5196;DHT22;2617;51.006;12.436;2023-03-20T21:03:07;9.10;99.90
5196;DHT22;2617;51.006;12.436;2023-03-20T21:08:10;9.10;99.90
5196;DHT22;2617;51.006;12.436;2023-03-20T21:13:13;9.10;99.90
5196;DHT22;2617;51.006;12.436;2023-03-20T21:18:15;9.10;99.90
5196;DHT22;2617;51.006;12.436;2023-03-20T21:23:17;9.20;99.90
5196;DHT22;2617;51.006;12.436;2023-03-20T21:28:20;9.20;99.90
5196;DHT22;2617;51.006;12.436;2023-03-20T21:33:22;9.20;99.90
5196;DHT22;2617;51.006;12.436;2023-03-20T21:38:24;9.20;99.90
5196;DHT22;2617;51.006;12.436;2023-03-20T21:43:28;9.10;99.90
5196;DHT22;2617;51.006;12.436;2023-03-20T21:48:30;9.10;99.90
5196;DHT22;2617;51.006;12.436;2023-03-20T21:53:32;9.20;99.90
5196;DHT22;2617;51.006;12.436;2023-03-20T21:58:35;9.20;99.90
5196;DHT22;2617;51.006;12.436;2023-03-20T22:03:38;9.20;99.90
5196;DHT22;2617;51.006;12.436;2023-03-20T22:08:40;9.20;99.90
5196;DHT22;2617;51.006;12.436;2023-03-20T22:13:43;9.20;99.90
5196;DHT22;2617;51.006;12.436;2023-03-20T22:18:46;9.20;99.90
5196;DHT22;2617;51.006;12.436;2023-03-20T22:23:48;9.20;99.90
5196;DHT22;2617;51.006;12.436;2023-03-20T22:28:51;9.20;99.90
5196;DHT22;2617;51.006;12.436;2023-03-20T22:33:53;9.10;99.90
5196;DHT22;2617;51.006;12.436;2023-03-20T22:38:56;9.00;99.90
5196;DHT22;2617;51.006;12.436;2023-03-20T22:43:58;8.90;99.90
5196;DHT22;2617;51.006;12.436;2023-03-20T22:49:01;8.90;99.90
5196;DHT22;2617;51.006;12.436;2023-03-20T22:54:04;8.80;99.90
5196;DHT22;2617;51.006;12.436;2023-03-20T22:59:07;8.70;99.90
5196;DHT22;2617;51.006;12.436;2023-03-20T23:04:10;8.70;99.90
5196;DHT22;2617;51.006;12.436;2023-03-20T23:09:12;8.70;99.90
5196;DHT22;2617;51.006;12.436;2023-03-20T23:14:14;8.70;99.90
5196;DHT22;2617;51.006;12.436;2023-03-20T23:19:17;8.60;99.90
5196;DHT22;2617;51.006;12.436;2023-03-20T23:24:19;8.60;99.90
5196;DHT22;2617;51.006;12.436;2023-03-20T23:29:26;8.50;99.90
5196;DHT22;2617;51.006;12.436;2023-03-20T23:34:28;8.50;99.90
5196;DHT22;2617;51.006;12.436;2023-03-20T23:39:30;8.40;99.90
5196;DHT22;2617;51.006;12.436;2023-03-20T23:44:33;8.30;99.90
5196;DHT22;2617;51.006;12.436;2023-03-20T23:49:36;8.20;99.90
5196;DHT22;2617;51.006;12.436;2023-03-20T23:54:39;8.20;99.90
5196;DHT22;2617;51.006;12.436;2023-03-20T23:59:41;8.20;99.90
